CCA195 ZSPD-RCTP
Flight info
| Callsign | CCA195 |
|---|---|
| Flight time | N/A |
| Altitude | 39100 |
| Route | HSN82D HSN W13 TOGUG/K0878S1220 W13 OKATO/K0874S1190 R596 SULEM/N0474F400 R596 BERBA B576 BAKER BAKER1A |
| Aircraft | B77W/H-SDE1E2E3FGHIJ2J3J4J5M1RWXY/LB1D1 |
Departure
| Time | 2026-04-30 14:38 |
|---|---|
| Airport | Shanghai Pudong International Airport (ZSPD) |
Arrival
| Time | N/A |
|---|---|
| Airport | Taiwan Taoyuan International Airport (RCTP) |
| Time | Latitude | Longitude | Altitude | Speed | Heading |
|---|---|---|---|---|---|
| 2026-04-30 14:18 | 31.16322 | 121.80574 | 28 ft | 0 kts | 252° |
| 2026-04-30 14:28 | 31.16326 | 121.80589 | 27 ft | 3 kts | 252° |
| 2026-04-30 14:28 | 31.16332 | 121.80611 | 28 ft | 3 kts | 250° |
| 2026-04-30 14:28 | 31.16340 | 121.80633 | 26 ft | 3 kts | 242° |
| 2026-04-30 14:28 | 31.16351 | 121.80652 | 25 ft | 3 kts | 221° |
| 2026-04-30 14:29 | 31.16375 | 121.80660 | 26 ft | 2 kts | 162° |
| 2026-04-30 14:29 | 31.16404 | 121.80649 | 27 ft | 1 kts | 162° |
| 2026-04-30 14:30 | 31.16407 | 121.80648 | 27 ft | 0 kts | 162° |
| 2026-04-30 14:32 | 31.16406 | 121.80648 | 27 ft | 0 kts | 162° |
| 2026-04-30 14:33 | 31.16354 | 121.80667 | 25 ft | 14 kts | 163° |
| 2026-04-30 14:33 | 31.16145 | 121.80744 | 28 ft | 16 kts | 160° |
| 2026-04-30 14:33 | 31.16040 | 121.80786 | 28 ft | 16 kts | 162° |
| 2026-04-30 14:34 | 31.15978 | 121.80808 | 28 ft | 2 kts | 163° |
| 2026-04-30 14:34 | 31.15954 | 121.80816 | 28 ft | 0 kts | 163° |
| 2026-04-30 14:34 | 31.15952 | 121.80818 | 28 ft | 2 kts | 160° |
| 2026-04-30 14:34 | 31.15925 | 121.80828 | 28 ft | 7 kts | 160° |
| 2026-04-30 14:35 | 31.15820 | 121.80898 | 27 ft | 14 kts | 113° |
| 2026-04-30 14:35 | 31.15857 | 121.81079 | 27 ft | 21 kts | 75° |
| 2026-04-30 14:35 | 31.15838 | 121.81199 | 26 ft | 16 kts | 152° |
| 2026-04-30 14:36 | 31.15798 | 121.81218 | 26 ft | 0 kts | 162° |
| 2026-04-30 14:38 | 31.15791 | 121.81221 | 26 ft | 9 kts | 162° |
| 2026-04-30 14:38 | 31.15347 | 121.81391 | 26 ft | 134 kts | 162° |
| 2026-04-30 14:38 | 31.14146 | 121.81822 | 700 ft | 201 kts | 164° |
| 2026-04-30 14:39 | 31.12713 | 121.82357 | 2012 ft | 241 kts | 162° |
| 2026-04-30 14:39 | 31.11162 | 121.82978 | 2998 ft | 236 kts | 162° |
| 2026-04-30 14:39 | 31.09598 | 121.83658 | 3969 ft | 238 kts | 156° |
| 2026-04-30 14:40 | 31.06938 | 121.86031 | 5599 ft | 263 kts | 138° |
| 2026-04-30 14:40 | 31.05420 | 121.87344 | 6323 ft | 279 kts | 144° |
| 2026-04-30 14:40 | 31.03781 | 121.88641 | 7253 ft | 290 kts | 145° |
| 2026-04-30 14:40 | 31.02108 | 121.89988 | 8379 ft | 294 kts | 146° |
| 2026-04-30 14:41 | 31.00436 | 121.91401 | 9505 ft | 301 kts | 143° |
| 2026-04-30 14:41 | 30.98821 | 121.93011 | 10516 ft | 310 kts | 139° |
| 2026-04-30 14:41 | 30.97232 | 121.94765 | 11424 ft | 320 kts | 137° |
| 2026-04-30 14:41 | 30.95577 | 121.96613 | 12103 ft | 340 kts | 137° |
| 2026-04-30 14:42 | 30.94013 | 121.98822 | 12307 ft | 369 kts | 117° |
| 2026-04-30 14:42 | 30.93417 | 122.00720 | 12479 ft | 387 kts | 97° |
| 2026-04-30 14:42 | 30.93823 | 122.04848 | 13558 ft | 385 kts | 60° |
| 2026-04-30 14:42 | 30.95005 | 122.07635 | 14250 ft | 387 kts | 54° |
| 2026-04-30 14:43 | 30.96194 | 122.10509 | 14688 ft | 403 kts | 62° |
| 2026-04-30 14:43 | 30.96775 | 122.12609 | 15181 ft | 416 kts | 70° |
| 2026-04-30 14:43 | 30.97339 | 122.15932 | 16051 ft | 422 kts | 77° |
| 2026-04-30 14:43 | 30.97517 | 122.19399 | 16507 ft | 439 kts | 91° |
| 2026-04-30 14:44 | 30.96723 | 122.22901 | 17298 ft | 455 kts | 116° |
| 2026-04-30 14:44 | 30.94895 | 122.25896 | 18295 ft | 456 kts | 141° |
| 2026-04-30 14:44 | 30.92313 | 122.27939 | 19141 ft | 446 kts | 165° |
| 2026-04-30 14:44 | 30.89406 | 122.28970 | 19954 ft | 432 kts | 175° |
| 2026-04-30 14:45 | 30.86462 | 122.29774 | 20402 ft | 438 kts | 175° |
| 2026-04-30 14:45 | 30.83481 | 122.30674 | 20823 ft | 446 kts | 172° |
| 2026-04-30 14:45 | 30.80522 | 122.31803 | 21417 ft | 449 kts | 169° |
| 2026-04-30 14:45 | 30.77570 | 122.33040 | 21953 ft | 456 kts | 168° |
| 2026-04-30 14:46 | 30.74564 | 122.34280 | 22802 ft | 460 kts | 169° |